Time;durP1;ratioP1;P1;durP2;ratioP2;P2;SDS_P1;SDS_P2;PMS_P1;PMS_P2;Temp;Humidity;BMP_temperature;BMP_pressure;BME280_temperature;BME280_humidity;BME280_pressure;Samples;Min_cycle;Max_cycle;Signal;HPM_P1;HPM_P2
2022/01/27 00:03:47;;;;;;;52.24999;23.45;;;;;;;0.41;79.48242;96296.04;;;;
2022/01/27 00:05:01;;;;;;;52.24999;23.45;;;;;;;0.41;79.48242;96296.04;;;;
2022/01/27 00:06:06;;;;;;;52.24999;23.45;;;;;;;0.41;79.48242;96296.04;;;;
2022/01/27 00:07:07;;;;;;;52.24999;23.45;;;;;;;0.41;79.48242;96296.04;;;;
2022/01/27 00:08:12;;;;;;;52.24999;23.45;;;;;;;0.41;79.48242;96296.04;;;;
2022/01/27 00:09:19;;;;;;;52.74999;23.8;;;;;;;0.37;79.63184;96282.71;;;;
2022/01/27 00:10:27;;;;;;;52.74999;23.8;;;;;;;0.37;79.63184;96282.71;;;;
2022/01/27 00:11:28;;;;;;;52.74999;23.8;;;;;;;0.37;79.63184;96282.71;;;;
2022/01/27 00:12:28;;;;;;;52.74999;23.8;;;;;;;0.37;79.63184;96282.71;;;;
2022/01/27 00:13:31;;;;;;;52.74999;23.8;;;;;;;0.37;79.63184;96282.71;;;;
2022/01/27 00:14:31;;;;;;;52.74999;23.8;;;;;;;0.37;79.63184;96282.71;;;;
2022/01/27 00:15:33;;;;;;;52.74999;23.8;;;;;;;0.37;79.63184;96282.71;;;;
2022/01/27 00:16:40;;;;;;;52.74999;23.8;;;;;;;0.37;79.63184;96282.71;;;;
2022/01/27 00:17:44;;;;;;;52.74999;23.8;;;;;;;0.37;79.63184;96282.71;;;;
2022/01/27 00:18:45;;;;;;;52.74999;23.8;;;;;;;0.37;79.63184;96282.71;;;;
2022/01/27 00:19:47;;;;;;;53.3;23.8;;;;;;;0.29;80.00391;96278.14;;;;
2022/01/27 00:20:47;;;;;;;53.3;23.8;;;;;;;0.29;80.00391;96278.14;;;;
2022/01/27 00:21:48;;;;;;;53.3;23.8;;;;;;;0.29;80.00391;96278.14;;;;
2022/01/27 00:22:50;;;;;;;53.3;23.8;;;;;;;0.29;80.00391;96278.14;;;;
2022/01/27 00:23:51;;;;;;;53.3;23.8;;;;;;;0.29;80.00391;96278.14;;;;
2022/01/27 00:24:52;;;;;;;53.3;23.8;;;;;;;0.29;80.00391;96278.14;;;;
2022/01/27 00:25:52;;;;;;;53.3;23.8;;;;;;;0.29;80.00391;96278.14;;;;
2022/01/27 00:26:53;;;;;;;53.3;23.8;;;;;;;0.29;80.00391;96278.14;;;;
2022/01/27 00:27:54;;;;;;;53.3;23.8;;;;;;;0.29;80.00391;96278.14;;;;
2022/01/27 00:28:54;;;;;;;53.3;23.8;;;;;;;0.29;80.00391;96278.14;;;;
2022/01/27 00:29:55;;;;;;;49.55;23.2;;;;;;;0.2;80.29883;96273.3;;;;
2022/01/27 00:30:56;;;;;;;49.55;23.2;;;;;;;0.2;80.29883;96273.3;;;;
2022/01/27 00:31:56;;;;;;;49.55;23.2;;;;;;;0.2;80.29883;96273.3;;;;
2022/01/27 00:32:57;;;;;;;49.55;23.2;;;;;;;0.2;80.29883;96273.3;;;;
2022/01/27 00:33:57;;;;;;;49.55;23.2;;;;;;;0.2;80.29883;96273.3;;;;
2022/01/27 00:34:58;;;;;;;49.55;23.2;;;;;;;0.2;80.29883;96273.3;;;;
2022/01/27 00:36:00;;;;;;;49.55;23.2;;;;;;;0.2;80.29883;96273.3;;;;
2022/01/27 00:37:00;;;;;;;49.55;23.2;;;;;;;0.2;80.29883;96273.3;;;;
2022/01/27 00:38:01;;;;;;;49.55;23.2;;;;;;;0.2;80.29883;96273.3;;;;
2022/01/27 00:39:02;;;;;;;49.55;23.2;;;;;;;0.2;80.29883;96273.3;;;;
2022/01/27 00:40:03;;;;;;;49.55;23.2;;;;;;;0.2;80.29883;96273.3;;;;
2022/01/27 00:41:05;;;;;;;57;23.9;;;;;;;0.18;80.66016;96261.6;;;;
2022/01/27 00:42:06;;;;;;;57;23.9;;;;;;;0.18;80.66016;96261.6;;;;
2022/01/27 00:43:07;;;;;;;57;23.9;;;;;;;0.18;80.66016;96261.6;;;;
2022/01/27 00:44:08;;;;;;;57;23.9;;;;;;;0.18;80.66016;96261.6;;;;
2022/01/27 00:45:08;;;;;;;57;23.9;;;;;;;0.18;80.66016;96261.6;;;;
2022/01/27 00:46:14;;;;;;;57;23.9;;;;;;;0.18;80.66016;96261.6;;;;
2022/01/27 00:47:15;;;;;;;57;23.9;;;;;;;0.18;80.66016;96261.6;;;;
2022/01/27 00:48:17;;;;;;;57;23.9;;;;;;;0.18;80.66016;96261.6;;;;
2022/01/27 00:49:18;;;;;;;57;23.9;;;;;;;0.18;80.66016;96261.6;;;;
2022/01/27 00:50:19;;;;;;;57;23.9;;;;;;;0.18;80.66016;96261.6;;;;
2022/01/27 00:51:22;;;;;;;54.8;23.5;;;;;;;0.16;80.69629;96276.42;;;;
2022/01/27 00:52:28;;;;;;;54.8;23.5;;;;;;;0.16;80.69629;96276.42;;;;
2022/01/27 00:53:36;;;;;;;54.8;23.5;;;;;;;0.16;80.69629;96276.42;;;;
2022/01/27 00:54:37;;;;;;;54.8;23.5;;;;;;;0.16;80.69629;96276.42;;;;
2022/01/27 00:55:41;;;;;;;54.8;23.5;;;;;;;0.16;80.69629;96276.42;;;;
2022/01/27 00:56:48;;;;;;;54.8;23.5;;;;;;;0.16;80.69629;96276.42;;;;
2022/01/27 00:58:03;;;;;;;54.8;23.5;;;;;;;0.16;80.69629;96276.42;;;;
2022/01/27 00:59:20;;;;;;;54.8;23.5;;;;;;;0.16;80.69629;96276.42;;;;
2022/01/27 01:00:26;;;;;;;54.8;23.5;;;;;;;0.16;80.69629;96276.42;;;;
2022/01/27 01:01:33;;;;;;;54.8;23.5;;;;;;;0.16;80.69629;96276.42;;;;
2022/01/27 01:02:43;;;;;;;53.84999;24.05;;;;;;;0.09;80.79883;96278.41;;;;
2022/01/27 01:03:47;;;;;;;53.84999;24.05;;;;;;;0.09;80.79883;96278.41;;;;
2022/01/27 01:04:59;;;;;;;53.84999;24.05;;;;;;;0.09;80.79883;96278.41;;;;
2022/01/27 01:06:17;;;;;;;53.84999;24.05;;;;;;;0.09;80.79883;96278.41;;;;
2022/01/27 01:07:20;;;;;;;53.84999;24.05;;;;;;;0.09;80.79883;96278.41;;;;
2022/01/27 01:09:11;;;;;;;53.84999;24.05;;;;;;;0.09;80.79883;96278.41;;;;
2022/01/27 01:11:14;;;;;;;53.84999;24.05;;;;;;;0.09;80.79883;96278.41;;;;
2022/01/27 01:14:05;;;;;;;53.84999;24.05;;;;;;;0.09;80.79883;96278.41;;;;
2022/01/27 01:15:12;;;;;;;55.75;23.7;;;;;;;0.04;81.10254;96280.17;;;;
2022/01/27 01:16:19;;;;;;;55.75;23.7;;;;;;;0.04;81.10254;96280.17;;;;
2022/01/27 01:17:43;;;;;;;55.75;23.7;;;;;;;0.04;81.10254;96280.17;;;;
2022/01/27 01:18:52;;;;;;;55.75;23.7;;;;;;;0.04;81.10254;96280.17;;;;
2022/01/27 01:20:07;;;;;;;55.75;23.7;;;;;;;0.04;81.10254;96280.17;;;;
2022/01/27 01:21:31;;;;;;;55.75;23.7;;;;;;;0.04;81.10254;96280.17;;;;
2022/01/27 01:33:56;;;;;;;55.75;23.7;;;;;;;0.04;81.10254;96280.17;;;;
2022/01/27 01:34:59;;;;;;;55.75;23.7;;;;;;;0.04;81.10254;96280.17;;;;
2022/01/27 01:36:05;;;;;;;55.75;23.7;;;;;;;0.04;81.10254;96280.17;;;;
2022/01/27 01:37:08;;;;;;;55.75;23.7;;;;;;;0.04;81.10254;96280.17;;;;
2022/01/27 01:38:09;;;;;;;55.75;23.7;;;;;;;0.04;81.10254;96280.17;;;;
2022/01/27 01:39:10;;;;;;;55.75;23.7;;;;;;;0.04;81.10254;96280.17;;;;
2022/01/27 01:40:12;;;;;;;55.75;23.7;;;;;;;0.04;81.10254;96280.17;;;;
2022/01/27 01:41:15;;;;;;;55.75;23.7;;;;;;;0.04;81.10254;96280.17;;;;
2022/01/27 01:42:16;;;;;;;55.75;23.7;;;;;;;0.04;81.10254;96280.17;;;;
2022/01/27 01:43:16;;;;;;;55.75;23.7;;;;;;;0.04;81.10254;96280.17;;;;
2022/01/27 01:44:17;;;;;;;55.75;23.7;;;;;;;0.04;81.10254;96280.17;;;;
2022/01/27 01:45:18;;;;;;;55.45;23.9;;;;;;;-0.28;82.00879;96254.97;;;;
2022/01/27 01:46:21;;;;;;;55.45;23.9;;;;;;;-0.28;82.00879;96254.97;;;;
2022/01/27 01:47:21;;;;;;;55.45;23.9;;;;;;;-0.28;82.00879;96254.97;;;;
2022/01/27 01:48:23;;;;;;;55.45;23.9;;;;;;;-0.28;82.00879;96254.97;;;;
2022/01/27 01:49:26;;;;;;;55.45;23.9;;;;;;;-0.28;82.00879;96254.97;;;;
2022/01/27 01:50:27;;;;;;;55.45;23.9;;;;;;;-0.28;82.00879;96254.97;;;;
2022/01/27 01:51:28;;;;;;;55.45;23.9;;;;;;;-0.28;82.00879;96254.97;;;;
2022/01/27 01:52:31;;;;;;;55.45;23.9;;;;;;;-0.28;82.00879;96254.97;;;;
2022/01/27 01:53:32;;;;;;;55.45;23.9;;;;;;;-0.28;82.00879;96254.97;;;;
2022/01/27 01:54:32;;;;;;;55.45;23.9;;;;;;;-0.28;82.00879;96254.97;;;;
2022/01/27 01:55:34;;;;;;;54.64999;23.5;;;;;;;-0.51;82.31934;96273.14;;;;
2022/01/27 01:56:34;;;;;;;54.64999;23.5;;;;;;;-0.51;82.31934;96273.14;;;;
2022/01/27 01:57:36;;;;;;;54.64999;23.5;;;;;;;-0.51;82.31934;96273.14;;;;
2022/01/27 01:58:37;;;;;;;54.64999;23.5;;;;;;;-0.51;82.31934;96273.14;;;;
2022/01/27 01:59:38;;;;;;;54.64999;23.5;;;;;;;-0.51;82.31934;96273.14;;;;
2022/01/27 02:00:38;;;;;;;54.64999;23.5;;;;;;;-0.51;82.31934;96273.14;;;;
2022/01/27 02:01:39;;;;;;;54.64999;23.5;;;;;;;-0.51;82.31934;96273.14;;;;
2022/01/27 02:02:40;;;;;;;54.64999;23.5;;;;;;;-0.51;82.31934;96273.14;;;;
2022/01/27 02:03:41;;;;;;;54.64999;23.5;;;;;;;-0.51;82.31934;96273.14;;;;
2022/01/27 02:04:41;;;;;;;54.64999;23.5;;;;;;;-0.51;82.31934;96273.14;;;;
2022/01/27 02:05:49;;;;;;;54.64999;23.5;;;;;;;-0.51;82.31934;96273.14;;;;
2022/01/27 02:06:53;;;;;;;57.9;24.3;;;;;;;-0.78;82.91113;96267.28;;;;
2022/01/27 02:07:59;;;;;;;57.9;24.3;;;;;;;-0.78;82.91113;96267.28;;;;
2022/01/27 02:09:19;;;;;;;57.9;24.3;;;;;;;-0.78;82.91113;96267.28;;;;
2022/01/27 02:10:33;;;;;;;57.9;24.3;;;;;;;-0.78;82.91113;96267.28;;;;
2022/01/27 02:21:58;;;;;;;52.2;23.4;;;;;;;-1.14;83.28809;96259.17;;;;
2022/01/27 02:23:01;;;;;;;52.2;23.4;;;;;;;-1.14;83.28809;96259.17;;;;
2022/01/27 02:24:03;;;;;;;52.2;23.4;;;;;;;-1.14;83.28809;96259.17;;;;
2022/01/27 02:25:04;;;;;;;52.2;23.4;;;;;;;-1.14;83.28809;96259.17;;;;
2022/01/27 02:26:06;;;;;;;52.2;23.4;;;;;;;-1.14;83.28809;96259.17;;;;
2022/01/27 02:27:06;;;;;;;52.2;23.4;;;;;;;-1.14;83.28809;96259.17;;;;
2022/01/27 02:28:07;;;;;;;54.20001;24.35;;;;;;;-1.47;83.87695;96252.55;;;;
2022/01/27 02:29:07;;;;;;;54.20001;24.35;;;;;;;-1.47;83.87695;96252.55;;;;
2022/01/27 02:30:08;;;;;;;54.20001;24.35;;;;;;;-1.47;83.87695;96252.55;;;;
2022/01/27 02:31:09;;;;;;;54.20001;24.35;;;;;;;-1.47;83.87695;96252.55;;;;
2022/01/27 02:32:09;;;;;;;54.20001;24.35;;;;;;;-1.47;83.87695;96252.55;;;;
2022/01/27 02:33:12;;;;;;;54.20001;24.35;;;;;;;-1.47;83.87695;96252.55;;;;
2022/01/27 02:34:12;;;;;;;54.20001;24.35;;;;;;;-1.47;83.87695;96252.55;;;;
2022/01/27 02:35:13;;;;;;;54.20001;24.35;;;;;;;-1.47;83.87695;96252.55;;;;
2022/01/27 02:36:14;;;;;;;54.20001;24.35;;;;;;;-1.47;83.87695;96252.55;;;;
2022/01/27 02:37:14;;;;;;;54.20001;24.35;;;;;;;-1.47;83.87695;96252.55;;;;
2022/01/27 02:38:15;;;;;;;55.85;23.7;;;;;;;-1.75;84.37012;96229.97;;;;
2022/01/27 02:39:15;;;;;;;55.85;23.7;;;;;;;-1.75;84.37012;96229.97;;;;
2022/01/27 02:40:18;;;;;;;55.85;23.7;;;;;;;-1.75;84.37012;96229.97;;;;
2022/01/27 02:41:28;;;;;;;55.85;23.7;;;;;;;-1.75;84.37012;96229.97;;;;
2022/01/27 02:42:31;;;;;;;55.85;23.7;;;;;;;-1.75;84.37012;96229.97;;;;
2022/01/27 02:43:34;;;;;;;55.85;23.7;;;;;;;-1.75;84.37012;96229.97;;;;
2022/01/27 02:44:34;;;;;;;55.85;23.7;;;;;;;-1.75;84.37012;96229.97;;;;
2022/01/27 02:45:42;;;;;;;55.85;23.7;;;;;;;-1.75;84.37012;96229.97;;;;
2022/01/27 02:46:49;;;;;;;55.85;23.7;;;;;;;-1.75;84.37012;96229.97;;;;
2022/01/27 02:47:51;;;;;;;55.85;23.7;;;;;;;-1.75;84.37012;96229.97;;;;
2022/01/27 02:48:51;;;;;;;62.7;26.4;;;;;;;-1.94;84.83008;96221.99;;;;
2022/01/27 02:49:52;;;;;;;62.7;26.4;;;;;;;-1.94;84.83008;96221.99;;;;
2022/01/27 02:50:52;;;;;;;62.7;26.4;;;;;;;-1.94;84.83008;96221.99;;;;
2022/01/27 02:51:53;;;;;;;62.7;26.4;;;;;;;-1.94;84.83008;96221.99;;;;
2022/01/27 02:52:53;;;;;;;62.7;26.4;;;;;;;-1.94;84.83008;96221.99;;;;
2022/01/27 02:53:54;;;;;;;62.7;26.4;;;;;;;-1.94;84.83008;96221.99;;;;
2022/01/27 02:54:55;;;;;;;62.7;26.4;;;;;;;-1.94;84.83008;96221.99;;;;
2022/01/27 02:55:56;;;;;;;62.7;26.4;;;;;;;-1.94;84.83008;96221.99;;;;
2022/01/27 02:56:56;;;;;;;62.7;26.4;;;;;;;-1.94;84.83008;96221.99;;;;
2022/01/27 02:57:58;;;;;;;62.7;26.4;;;;;;;-1.94;84.83008;96221.99;;;;
2022/01/27 02:58:59;;;;;;;62.7;26.4;;;;;;;-1.94;84.83008;96221.99;;;;
2022/01/27 02:59:59;;;;;;;63.65001;25.55;;;;;;;-2.04;85.12207;96229.08;;;;
2022/01/27 03:01:00;;;;;;;63.65001;25.55;;;;;;;-2.04;85.12207;96229.08;;;;
2022/01/27 03:02:00;;;;;;;63.65001;25.55;;;;;;;-2.04;85.12207;96229.08;;;;
2022/01/27 03:03:01;;;;;;;63.65001;25.55;;;;;;;-2.04;85.12207;96229.08;;;;
2022/01/27 03:04:02;;;;;;;63.65001;25.55;;;;;;;-2.04;85.12207;96229.08;;;;
2022/01/27 03:05:03;;;;;;;63.65001;25.55;;;;;;;-2.04;85.12207;96229.08;;;;
2022/01/27 03:06:05;;;;;;;63.65001;25.55;;;;;;;-2.04;85.12207;96229.08;;;;
2022/01/27 03:07:05;;;;;;;63.65001;25.55;;;;;;;-2.04;85.12207;96229.08;;;;
2022/01/27 03:08:07;;;;;;;63.65001;25.55;;;;;;;-2.04;85.12207;96229.08;;;;
2022/01/27 03:09:08;;;;;;;63.65001;25.55;;;;;;;-2.04;85.12207;96229.08;;;;
2022/01/27 03:10:09;;;;;;;61.55001;24.8;;;;;;;-2.16;85.05469;96223.57;;;;
2022/01/27 03:11:09;;;;;;;61.55001;24.8;;;;;;;-2.16;85.05469;96223.57;;;;
2022/01/27 03:12:17;;;;;;;61.55001;24.8;;;;;;;-2.16;85.05469;96223.57;;;;
2022/01/27 03:13:18;;;;;;;61.55001;24.8;;;;;;;-2.16;85.05469;96223.57;;;;
2022/01/27 03:14:20;;;;;;;61.55001;24.8;;;;;;;-2.16;85.05469;96223.57;;;;
2022/01/27 03:15:21;;;;;;;61.55001;24.8;;;;;;;-2.16;85.05469;96223.57;;;;
2022/01/27 03:16:22;;;;;;;61.55001;24.8;;;;;;;-2.16;85.05469;96223.57;;;;
2022/01/27 03:17:23;;;;;;;61.55001;24.8;;;;;;;-2.16;85.05469;96223.57;;;;
2022/01/27 03:18:24;;;;;;;61.55001;24.8;;;;;;;-2.16;85.05469;96223.57;;;;
2022/01/27 03:19:24;;;;;;;61.55001;24.8;;;;;;;-2.16;85.05469;96223.57;;;;
2022/01/27 03:20:32;;;;;;;61.55001;24.8;;;;;;;-2.16;85.05469;96223.57;;;;
2022/01/27 03:21:32;;;;;;;58.39999;24.75;;;;;;;-2.29;85.23633;96210.17;;;;
2022/01/27 03:22:33;;;;;;;58.39999;24.75;;;;;;;-2.29;85.23633;96210.17;;;;
2022/01/27 03:23:35;;;;;;;58.39999;24.75;;;;;;;-2.29;85.23633;96210.17;;;;
2022/01/27 03:24:36;;;;;;;58.39999;24.75;;;;;;;-2.29;85.23633;96210.17;;;;
2022/01/27 03:25:38;;;;;;;58.39999;24.75;;;;;;;-2.29;85.23633;96210.17;;;;
2022/01/27 03:26:40;;;;;;;58.39999;24.75;;;;;;;-2.29;85.23633;96210.17;;;;
2022/01/27 03:27:46;;;;;;;58.39999;24.75;;;;;;;-2.29;85.23633;96210.17;;;;
2022/01/27 03:28:46;;;;;;;58.39999;24.75;;;;;;;-2.29;85.23633;96210.17;;;;
2022/01/27 03:29:47;;;;;;;58.39999;24.75;;;;;;;-2.29;85.23633;96210.17;;;;
2022/01/27 03:30:48;;;;;;;58.39999;24.75;;;;;;;-2.29;85.23633;96210.17;;;;
2022/01/27 03:31:48;;;;;;;58.39999;24.75;;;;;;;-2.29;85.23633;96210.17;;;;
2022/01/27 03:32:49;;;;;;;58.39999;24.75;;;;;;;-2.29;85.23633;96210.17;;;;
2022/01/27 03:33:50;;;;;;;58.39999;24.75;;;;;;;-2.29;85.23633;96210.17;;;;
2022/01/27 03:34:51;;;;;;;58.39999;24.75;;;;;;;-2.29;85.23633;96210.17;;;;
2022/01/27 03:35:51;;;;;;;58.39999;24.75;;;;;;;-2.29;85.23633;96210.17;;;;
2022/01/27 03:36:52;;;;;;;58.39999;24.75;;;;;;;-2.29;85.23633;96210.17;;;;
2022/01/27 03:37:52;;;;;;;58.39999;24.75;;;;;;;-2.29;85.23633;96210.17;;;;
2022/01/27 03:38:53;;;;;;;58.39999;24.75;;;;;;;-2.29;85.23633;96210.17;;;;
2022/01/27 03:39:54;;;;;;;58.39999;24.75;;;;;;;-2.29;85.23633;96210.17;;;;
2022/01/27 03:40:54;;;;;;;58.39999;24.75;;;;;;;-2.29;85.23633;96210.17;;;;
2022/01/27 03:41:56;;;;;;;65;25.75;;;;;;;-2.58;86.07715;96200.89;;;;
2022/01/27 03:43:04;;;;;;;65;25.75;;;;;;;-2.58;86.07715;96200.89;;;;
2022/01/27 03:44:05;;;;;;;65;25.75;;;;;;;-2.58;86.07715;96200.89;;;;
2022/01/27 03:45:06;;;;;;;65;25.75;;;;;;;-2.58;86.07715;96200.89;;;;
2022/01/27 03:46:08;;;;;;;65;25.75;;;;;;;-2.58;86.07715;96200.89;;;;
2022/01/27 03:47:09;;;;;;;65;25.75;;;;;;;-2.58;86.07715;96200.89;;;;
2022/01/27 03:48:10;;;;;;;65;25.75;;;;;;;-2.58;86.07715;96200.89;;;;
2022/01/27 03:49:10;;;;;;;65;25.75;;;;;;;-2.58;86.07715;96200.89;;;;
2022/01/27 03:50:11;;;;;;;65;25.75;;;;;;;-2.58;86.07715;96200.89;;;;
2022/01/27 03:51:12;;;;;;;65;25.75;;;;;;;-2.58;86.07715;96200.89;;;;
2022/01/27 03:52:12;;;;;;;65;25.75;;;;;;;-2.58;86.07715;96200.89;;;;
2022/01/27 03:53:14;;;;;;;87.14999;29.15;;;;;;;-2.44;86.39551;96193.9;;;;
2022/01/27 03:54:15;;;;;;;87.14999;29.15;;;;;;;-2.44;86.39551;96193.9;;;;
2022/01/27 03:55:16;;;;;;;87.14999;29.15;;;;;;;-2.44;86.39551;96193.9;;;;
2022/01/27 03:56:17;;;;;;;87.14999;29.15;;;;;;;-2.44;86.39551;96193.9;;;;
2022/01/27 03:57:17;;;;;;;87.14999;29.15;;;;;;;-2.44;86.39551;96193.9;;;;
2022/01/27 03:58:18;;;;;;;87.14999;29.15;;;;;;;-2.44;86.39551;96193.9;;;;
2022/01/27 03:59:18;;;;;;;87.14999;29.15;;;;;;;-2.44;86.39551;96193.9;;;;
2022/01/27 04:00:19;;;;;;;87.14999;29.15;;;;;;;-2.44;86.39551;96193.9;;;;
2022/01/27 04:01:20;;;;;;;87.14999;29.15;;;;;;;-2.44;86.39551;96193.9;;;;
2022/01/27 04:02:20;;;;;;;87.14999;29.15;;;;;;;-2.44;86.39551;96193.9;;;;
2022/01/27 04:03:22;;;;;;;87.14999;29.15;;;;;;;-2.44;86.39551;96193.9;;;;
2022/01/27 04:04:24;;;;;;;87.14999;29.15;;;;;;;-2.44;86.39551;96193.9;;;;
2022/01/27 04:05:25;;;;;;;87.14999;29.15;;;;;;;-2.44;86.39551;96193.9;;;;
2022/01/27 04:06:33;;;;;;;87.14999;29.15;;;;;;;-2.44;86.39551;96193.9;;;;
2022/01/27 04:07:34;;;;;;;87.14999;29.15;;;;;;;-2.44;86.39551;96193.9;;;;
2022/01/27 04:08:36;;;;;;;87.14999;29.15;;;;;;;-2.44;86.39551;96193.9;;;;
2022/01/27 04:09:38;;;;;;;87.14999;29.15;;;;;;;-2.44;86.39551;96193.9;;;;
2022/01/27 04:10:39;;;;;;;87.14999;29.15;;;;;;;-2.44;86.39551;96193.9;;;;
2022/01/27 04:11:40;;;;;;;87.14999;29.15;;;;;;;-2.44;86.39551;96193.9;;;;
2022/01/27 04:12:41;;;;;;;87.14999;29.15;;;;;;;-2.44;86.39551;96193.9;;;;
2022/01/27 04:13:42;;;;;;;87.14999;29.15;;;;;;;-2.44;86.39551;96193.9;;;;
2022/01/27 04:14:43;;;;;;;59.05;26.4;;;;;;;-2.25;86.16504;96204.13;;;;
2022/01/27 04:15:44;;;;;;;59.05;26.4;;;;;;;-2.25;86.16504;96204.13;;;;
2022/01/27 04:16:45;;;;;;;59.05;26.4;;;;;;;-2.25;86.16504;96204.13;;;;
2022/01/27 04:17:46;;;;;;;59.05;26.4;;;;;;;-2.25;86.16504;96204.13;;;;
2022/01/27 04:18:46;;;;;;;59.05;26.4;;;;;;;-2.25;86.16504;96204.13;;;;
2022/01/27 04:19:47;;;;;;;59.05;26.4;;;;;;;-2.25;86.16504;96204.13;;;;
2022/01/27 04:20:47;;;;;;;59.05;26.4;;;;;;;-2.25;86.16504;96204.13;;;;
2022/01/27 04:21:48;;;;;;;59.05;26.4;;;;;;;-2.25;86.16504;96204.13;;;;
2022/01/27 04:22:48;;;;;;;59.05;26.4;;;;;;;-2.25;86.16504;96204.13;;;;
2022/01/27 04:23:49;;;;;;;59.05;26.4;;;;;;;-2.25;86.16504;96204.13;;;;
2022/01/27 04:24:50;;;;;;;66.65;26.25;;;;;;;-2.26;86.31836;96186.56;;;;
2022/01/27 04:25:51;;;;;;;66.65;26.25;;;;;;;-2.26;86.31836;96186.56;;;;
2022/01/27 04:27:00;;;;;;;66.65;26.25;;;;;;;-2.26;86.31836;96186.56;;;;
2022/01/27 04:28:05;;;;;;;66.65;26.25;;;;;;;-2.26;86.31836;96186.56;;;;
2022/01/27 04:29:07;;;;;;;66.65;26.25;;;;;;;-2.26;86.31836;96186.56;;;;
2022/01/27 04:30:13;;;;;;;66.65;26.25;;;;;;;-2.26;86.31836;96186.56;;;;
2022/01/27 04:31:14;;;;;;;66.65;26.25;;;;;;;-2.26;86.31836;96186.56;;;;
2022/01/27 04:32:21;;;;;;;66.65;26.25;;;;;;;-2.26;86.31836;96186.56;;;;
2022/01/27 04:33:24;;;;;;;66.65;26.25;;;;;;;-2.26;86.31836;96186.56;;;;
2022/01/27 04:34:25;;;;;;;66.65;26.25;;;;;;;-2.26;86.31836;96186.56;;;;
2022/01/27 04:35:27;;;;;;;66.65;26.25;;;;;;;-2.26;86.31836;96186.56;;;;
2022/01/27 04:36:30;;;;;;;66.65;26.25;;;;;;;-2.26;86.31836;96186.56;;;;
2022/01/27 04:37:36;;;;;;;66.65;26.25;;;;;;;-2.26;86.31836;96186.56;;;;
2022/01/27 04:38:43;;;;;;;66.65;26.25;;;;;;;-2.26;86.31836;96186.56;;;;
2022/01/27 04:39:54;;;;;;;66.65;26.25;;;;;;;-2.26;86.31836;96186.56;;;;
2022/01/27 04:41:02;;;;;;;66.65;26.25;;;;;;;-2.26;86.31836;96186.56;;;;
2022/01/27 04:42:09;;;;;;;66.65;26.25;;;;;;;-2.26;86.31836;96186.56;;;;
2022/01/27 04:43:19;;;;;;;66.65;26.25;;;;;;;-2.26;86.31836;96186.56;;;;
2022/01/27 04:44:26;;;;;;;66.65;26.25;;;;;;;-2.26;86.31836;96186.56;;;;
2022/01/27 04:45:33;;;;;;;66.65;26.25;;;;;;;-2.26;86.31836;96186.56;;;;
2022/01/27 04:46:39;;;;;;;59.55;25.75;;;;;;;-2.27;86.38867;96161.95;;;;
2022/01/27 04:47:45;;;;;;;59.55;25.75;;;;;;;-2.27;86.38867;96161.95;;;;
2022/01/27 04:48:50;;;;;;;59.55;25.75;;;;;;;-2.27;86.38867;96161.95;;;;
2022/01/27 04:49:51;;;;;;;59.55;25.75;;;;;;;-2.27;86.38867;96161.95;;;;
2022/01/27 04:50:52;;;;;;;59.55;25.75;;;;;;;-2.27;86.38867;96161.95;;;;
2022/01/27 04:51:53;;;;;;;59.55;25.75;;;;;;;-2.27;86.38867;96161.95;;;;
2022/01/27 04:52:55;;;;;;;59.55;25.75;;;;;;;-2.27;86.38867;96161.95;;;;
2022/01/27 04:54:01;;;;;;;59.55;25.75;;;;;;;-2.27;86.38867;96161.95;;;;
2022/01/27 04:55:03;;;;;;;59.55;25.75;;;;;;;-2.27;86.38867;96161.95;;;;
2022/01/27 04:56:06;;;;;;;59.55;25.75;;;;;;;-2.27;86.38867;96161.95;;;;
2022/01/27 04:57:08;;;;;;;65.95001;27.25;;;;;;;-2.29;86.41602;96152;;;;
2022/01/27 04:58:13;;;;;;;65.95001;27.25;;;;;;;-2.29;86.41602;96152;;;;
2022/01/27 04:59:18;;;;;;;65.95001;27.25;;;;;;;-2.29;86.41602;96152;;;;
2022/01/27 05:00:18;;;;;;;65.95001;27.25;;;;;;;-2.29;86.41602;96152;;;;
2022/01/27 05:01:24;;;;;;;65.95001;27.25;;;;;;;-2.29;86.41602;96152;;;;
2022/01/27 05:02:34;;;;;;;65.95001;27.25;;;;;;;-2.29;86.41602;96152;;;;
2022/01/27 05:03:40;;;;;;;65.95001;27.25;;;;;;;-2.29;86.41602;96152;;;;
2022/01/27 05:04:43;;;;;;;65.95001;27.25;;;;;;;-2.29;86.41602;96152;;;;
2022/01/27 05:05:43;;;;;;;65.95001;27.25;;;;;;;-2.29;86.41602;96152;;;;
2022/01/27 05:06:44;;;;;;;65.95001;27.25;;;;;;;-2.29;86.41602;96152;;;;
2022/01/27 05:07:54;;;;;;;60.15;23.85;;;;;;;-2.31;86.55859;96139.81;;;;
2022/01/27 05:08:55;;;;;;;60.15;23.85;;;;;;;-2.31;86.55859;96139.81;;;;
2022/01/27 05:10:00;;;;;;;60.15;23.85;;;;;;;-2.31;86.55859;96139.81;;;;
2022/01/27 05:11:04;;;;;;;60.15;23.85;;;;;;;-2.31;86.55859;96139.81;;;;
2022/01/27 05:12:11;;;;;;;60.15;23.85;;;;;;;-2.31;86.55859;96139.81;;;;
2022/01/27 05:13:17;;;;;;;60.15;23.85;;;;;;;-2.31;86.55859;96139.81;;;;
2022/01/27 05:14:20;;;;;;;60.15;23.85;;;;;;;-2.31;86.55859;96139.81;;;;
2022/01/27 05:15:21;;;;;;;60.15;23.85;;;;;;;-2.31;86.55859;96139.81;;;;
2022/01/27 05:16:22;;;;;;;60.15;23.85;;;;;;;-2.31;86.55859;96139.81;;;;
2022/01/27 05:17:23;;;;;;;60.15;23.85;;;;;;;-2.31;86.55859;96139.81;;;;
2022/01/27 05:18:23;;;;;;;57.4;25.35;;;;;;;-2.37;86.56445;96142.57;;;;
2022/01/27 05:19:24;;;;;;;57.4;25.35;;;;;;;-2.37;86.56445;96142.57;;;;
2022/01/27 05:20:24;;;;;;;57.4;25.35;;;;;;;-2.37;86.56445;96142.57;;;;
2022/01/27 05:21:25;;;;;;;57.4;25.35;;;;;;;-2.37;86.56445;96142.57;;;;
2022/01/27 05:22:25;;;;;;;57.4;25.35;;;;;;;-2.37;86.56445;96142.57;;;;
2022/01/27 05:23:26;;;;;;;57.4;25.35;;;;;;;-2.37;86.56445;96142.57;;;;
2022/01/27 05:24:27;;;;;;;57.4;25.35;;;;;;;-2.37;86.56445;96142.57;;;;
2022/01/27 05:25:27;;;;;;;57.4;25.35;;;;;;;-2.37;86.56445;96142.57;;;;
2022/01/27 05:26:28;;;;;;;57.4;25.35;;;;;;;-2.37;86.56445;96142.57;;;;
2022/01/27 05:27:28;;;;;;;57.4;25.35;;;;;;;-2.37;86.56445;96142.57;;;;
2022/01/27 05:28:29;;;;;;;57.4;25.35;;;;;;;-2.37;86.56445;96142.57;;;;
2022/01/27 05:29:29;;;;;;;52.9;23.95;;;;;;;-2.44;86.6748;96128.7;;;;
2022/01/27 05:30:30;;;;;;;52.9;23.95;;;;;;;-2.44;86.6748;96128.7;;;;
2022/01/27 05:31:30;;;;;;;52.9;23.95;;;;;;;-2.44;86.6748;96128.7;;;;
2022/01/27 05:32:31;;;;;;;52.9;23.95;;;;;;;-2.44;86.6748;96128.7;;;;
2022/01/27 05:33:34;;;;;;;52.9;23.95;;;;;;;-2.44;86.6748;96128.7;;;;
2022/01/27 05:34:35;;;;;;;52.9;23.95;;;;;;;-2.44;86.6748;96128.7;;;;
2022/01/27 05:35:35;;;;;;;52.9;23.95;;;;;;;-2.44;86.6748;96128.7;;;;
2022/01/27 05:36:36;;;;;;;52.9;23.95;;;;;;;-2.44;86.6748;96128.7;;;;
2022/01/27 05:37:37;;;;;;;52.9;23.95;;;;;;;-2.44;86.6748;96128.7;;;;
2022/01/27 05:38:37;;;;;;;52.9;23.95;;;;;;;-2.44;86.6748;96128.7;;;;
2022/01/27 05:39:38;;;;;;;48.35001;22.85;;;;;;;-2.49;86.96484;96110.63;;;;
2022/01/27 05:40:38;;;;;;;48.35001;22.85;;;;;;;-2.49;86.96484;96110.63;;;;
2022/01/27 05:41:39;;;;;;;48.35001;22.85;;;;;;;-2.49;86.96484;96110.63;;;;
2022/01/27 05:42:40;;;;;;;48.35001;22.85;;;;;;;-2.49;86.96484;96110.63;;;;
2022/01/27 05:43:40;;;;;;;48.35001;22.85;;;;;;;-2.49;86.96484;96110.63;;;;
2022/01/27 05:44:41;;;;;;;48.35001;22.85;;;;;;;-2.49;86.96484;96110.63;;;;
2022/01/27 05:45:41;;;;;;;48.35001;22.85;;;;;;;-2.49;86.96484;96110.63;;;;
2022/01/27 05:46:42;;;;;;;48.35001;22.85;;;;;;;-2.49;86.96484;96110.63;;;;
2022/01/27 05:47:42;;;;;;;48.35001;22.85;;;;;;;-2.49;86.96484;96110.63;;;;
2022/01/27 05:48:43;;;;;;;48.35001;22.85;;;;;;;-2.49;86.96484;96110.63;;;;
2022/01/27 05:49:43;;;;;;;48.35001;22.85;;;;;;;-2.49;86.96484;96110.63;;;;
2022/01/27 05:50:44;;;;;;;42.2;20.3;;;;;;;-2.62;87.04199;96108.29;;;;
2022/01/27 05:51:44;;;;;;;42.2;20.3;;;;;;;-2.62;87.04199;96108.29;;;;
2022/01/27 05:52:45;;;;;;;42.2;20.3;;;;;;;-2.62;87.04199;96108.29;;;;
2022/01/27 05:53:46;;;;;;;42.2;20.3;;;;;;;-2.62;87.04199;96108.29;;;;
2022/01/27 05:54:46;;;;;;;42.2;20.3;;;;;;;-2.62;87.04199;96108.29;;;;
2022/01/27 05:55:47;;;;;;;42.2;20.3;;;;;;;-2.62;87.04199;96108.29;;;;
2022/01/27 05:56:48;;;;;;;42.2;20.3;;;;;;;-2.62;87.04199;96108.29;;;;
2022/01/27 05:57:48;;;;;;;42.2;20.3;;;;;;;-2.62;87.04199;96108.29;;;;
2022/01/27 05:58:49;;;;;;;42.2;20.3;;;;;;;-2.62;87.04199;96108.29;;;;
2022/01/27 05:59:49;;;;;;;42.2;20.3;;;;;;;-2.62;87.04199;96108.29;;;;
2022/01/27 06:00:50;;;;;;;44.95;21.25;;;;;;;-2.7;87.33398;96120.47;;;;
2022/01/27 06:01:51;;;;;;;44.95;21.25;;;;;;;-2.7;87.33398;96120.47;;;;
2022/01/27 06:02:51;;;;;;;44.95;21.25;;;;;;;-2.7;87.33398;96120.47;;;;
2022/01/27 06:03:52;;;;;;;44.95;21.25;;;;;;;-2.7;87.33398;96120.47;;;;
2022/01/27 06:04:52;;;;;;;44.95;21.25;;;;;;;-2.7;87.33398;96120.47;;;;
2022/01/27 06:05:53;;;;;;;44.95;21.25;;;;;;;-2.7;87.33398;96120.47;;;;
2022/01/27 06:06:53;;;;;;;44.95;21.25;;;;;;;-2.7;87.33398;96120.47;;;;
2022/01/27 06:07:54;;;;;;;44.95;21.25;;;;;;;-2.7;87.33398;96120.47;;;;
2022/01/27 06:08:54;;;;;;;44.95;21.25;;;;;;;-2.7;87.33398;96120.47;;;;
2022/01/27 06:09:55;;;;;;;44.95;21.25;;;;;;;-2.7;87.33398;96120.47;;;;
2022/01/27 06:10:55;;;;;;;44.95;21.25;;;;;;;-2.7;87.33398;96120.47;;;;
2022/01/27 06:11:56;;;;;;;44.40001;20.5;;;;;;;-2.81;87.3125;96113.06;;;;
2022/01/27 06:12:57;;;;;;;44.40001;20.5;;;;;;;-2.81;87.3125;96113.06;;;;